首页
METAR-TAF:

METAR-TAF

机场 :

Gallup, 新墨西哥州, 美国

纬度: 35-30-40N, 经度: 108-47-22W, 海拔: 1973米

当前天气观测

该预报发布于16分钟前的21:53 UTC
风速5节,风向多变
温度 34°C
湿度 10%
气压 1023 hPa
能見度: 16.1公里
天空无云

METAR: KGUP 212153Z AUTO VRB05KT 10SM CLR 34/M02 A3022 RMK AO2 SLP018 T03391022

时间: 16:09 (22:09 UTC)

预报

该预报发布于4小时和47分钟前的17:22 UTC
预报有效从21日的 18点(UTC)到 22日的 18点(UTC)
风速6节,风向西
能見度: 10公里
少量云层高于12000英尺
从 21日的 2100点(UTC)
风速10节,风向西转西北
能見度: 10公里
散云层高于13000英尺
从 22日的 0200点(UTC)
风速6节,风向多变
能見度: 10公里
散云层高于12000英尺

TAF: KGUP 211722Z 2118/2218 27006KT P6SM FEW120 FM212100 30010KT P6SM SCT130 FM220200 VRB06KT P6SM SCT120

超过4000个机场的气象观测和天气预报(METAR&TAF报告)。

可查询的气象台以黄色和红色小点在地图上表示。

将鼠标移到小点上方,可查看气象台名称。

然后点击查看天气观测和预报。

如需切换地图:点击带黑十字的绿色按钮放大地图;点击带横线的绿色按钮缩小地图;或者点击绿色箭头查看邻近地区的地图。


METAR-TAF: